Terminal Aerodrome Forecast
Issued by NWS

Home | Current Version | Previous Version | Text Only | Print | Product List | Glossary On
Versions: 1 2 3 4 5 6 7 8 9 10 11 12 13 14 15 16 17 18 19 20
132
FTUS46 KMFR 272351
TAFOTH
TAF
KOTH 272351Z 2800/2824 27008KT P6SM -SHRA SCT040 BKN060
     FM280700 21010KT P6SM -SHRA BKN020 OVC035=

USA.gov is the U.S. government's official web portal to all federal, state and local government web resources and services.